Time;durP1;ratioP1;P1;durP2;ratioP2;P2;SDS_P1;SDS_P2;PMS_P1;PMS_P2;Temp;Humidity;BMP_temperature;BMP_pressure;BME280_temperature;BME280_humidity;BME280_pressure;Samples;Min_cycle;Max_cycle;Signal;HPM_P1;HPM_P2
2023/04/12 00:00:11;;;;;;;;;;;9.60;1.00;;;;;;5074029;28;19904;-73
2023/04/12 00:02:37;;;;;;;;;;;9.60;1.00;;;;;;5086060;28;19908;-73
2023/04/12 00:05:03;;;;;;;;;;;9.60;1.00;;;;;;5079450;28;19908;-75
2023/04/12 00:07:31;;;;;;;;;;;9.60;1.00;;;;;;5074000;28;19904;-73
2023/04/12 00:09:56;;;;;;;;;;;9.60;1.00;;;;;;5074111;28;20340;-73
2023/04/12 00:12:22;;;;;;;;;;;9.60;1.00;;;;;;5078011;28;19958;-74
2023/04/12 00:14:48;;;;;;;;;;;9.60;1.00;;;;;;5081509;28;19912;-73
2023/04/12 00:17:19;;;;;;;;;;;9.60;1.00;;;;;;5074343;28;20007;-74
2023/04/12 00:19:46;;;;;;;;;;;9.50;1.00;;;;;;5074475;28;19954;-73
2023/04/12 00:22:11;;;;;;;;;;;9.50;1.00;;;;;;5075073;28;20002;-73
2023/04/12 00:24:38;;;;;;;;;;;9.50;1.00;;;;;;5075676;28;19951;-73
2023/04/12 00:27:05;;;;;;;;;;;9.50;1.00;;;;;;5094062;28;19927;-74
2023/04/12 00:29:31;;;;;;;;;;;9.50;1.00;;;;;;5095750;28;19904;-73
2023/04/12 00:31:56;;;;;;;;;;;9.50;1.00;;;;;;5098589;28;20351;-74
2023/04/12 00:34:22;;;;;;;;;;;9.60;1.00;;;;;;5080376;28;20022;-73
2023/04/12 00:36:48;;;;;;;;;;;9.60;1.00;;;;;;5077727;28;19912;-73
2023/04/12 00:39:14;;;;;;;;;;;9.70;1.00;;;;;;5059894;28;19904;-74
2023/04/12 00:41:39;;;;;;;;;;;9.70;1.00;;;;;;5086915;28;19904;-73
2023/04/12 00:44:07;;;;;;;;;;;9.70;1.00;;;;;;5091593;28;19904;-74
2023/04/12 00:46:33;;;;;;;;;;;9.70;1.00;;;;;;5078820;28;19939;-73
2023/04/12 00:48:58;;;;;;;;;;;9.60;1.00;;;;;;5077679;28;19951;-74
2023/04/12 00:51:24;;;;;;;;;;;9.50;1.00;;;;;;5077343;28;19915;-73
2023/04/12 00:53:57;;;;;;;;;;;9.50;1.00;;;;;;5059245;28;19909;-75
2023/04/12 00:56:23;;;;;;;;;;;9.40;1.00;;;;;;5077673;28;20336;-73
2023/04/12 00:58:49;;;;;;;;;;;9.50;1.00;;;;;;5077420;28;19911;-74
2023/04/12 01:04:17;;;;;;;;;;;9.60;1.00;;;;;;5092072;28;19915;-79
2023/04/12 01:06:49;;;;;;;;;;;9.60;1.00;;;;;;5077411;28;19909;-79
2023/04/12 01:09:35;;;;;;;;;;;9.50;1.00;;;;;;5077238;28;19983;-79
2023/04/12 01:12:19;;;;;;;;;;;9.50;1.00;;;;;;5077381;28;19914;-79
2023/04/12 01:15:13;;;;;;;;;;;9.50;1.00;;;;;;5076967;28;20245;-79
2023/04/12 01:17:51;;;;;;;;;;;9.50;1.00;;;;;;5077414;28;20010;-73
2023/04/12 01:20:20;;;;;;;;;;;9.50;1.00;;;;;;5076988;28;19971;-74
2023/04/12 01:23:04;;;;;;;;;;;9.50;1.00;;;;;;5076902;28;19920;-74
2023/04/12 01:25:33;;;;;;;;;;;9.40;1.00;;;;;;5083787;28;19978;-73
2023/04/12 01:28:01;;;;;;;;;;;9.40;1.00;;;;;;5078971;28;19911;-74
2023/04/12 01:30:27;;;;;;;;;;;9.40;1.00;;;;;;5079059;28;19944;-73
2023/04/12 01:33:13;;;;;;;;;;;9.40;1.00;;;;;;5097804;28;19904;-79
2023/04/12 01:38:42;;;;;;;;;;;9.60;1.00;;;;;;5076589;28;19954;-79
2023/04/12 01:41:13;;;;;;;;;;;9.60;1.00;;;;;;5076605;28;20310;-79
2023/04/12 01:46:46;;;;;;;;;;;9.50;1.00;;;;;;5079877;28;19941;-78
2023/04/12 01:52:18;;;;;;;;;;;9.40;1.00;;;;;;5076403;28;20014;-79
2023/04/12 01:57:55;;;;;;;;;;;9.50;1.00;;;;;;5076276;28;19931;-79
2023/04/12 02:03:25;;;;;;;;;;;9.40;1.00;;;;;;5076348;28;19958;-79
2023/04/12 02:08:57;;;;;;;;;;;9.40;1.00;;;;;;5076207;28;20271;-79
2023/04/12 02:14:26;;;;;;;;;;;9.30;1.00;;;;;;5076495;28;19916;-79
2023/04/12 02:16:54;;;;;;;;;;;9.20;1.00;;;;;;5076610;28;19909;-74
2023/04/12 02:19:31;;;;;;;;;;;9.20;1.00;;;;;;5075974;28;19908;-79
2023/04/12 02:28:03;;;;;;;;;;;9.20;1.00;;;;;;5093893;28;19958;-79
2023/04/12 02:30:37;;;;;;;;;;;9.30;1.00;;;;;;5096142;28;19904;-79
2023/04/12 02:33:04;;;;;;;;;;;9.20;1.00;;;;;;5096399;28;19947;-73
2023/04/12 02:35:30;;;;;;;;;;;9.20;1.00;;;;;;5091148;28;19909;-73
2023/04/12 02:37:56;;;;;;;;;;;9.10;1.00;;;;;;5075505;28;20333;-73
2023/04/12 02:40:22;;;;;;;;;;;9.20;1.00;;;;;;5075466;28;19904;-74
2023/04/12 02:42:47;;;;;;;;;;;9.20;1.00;;;;;;5074935;28;20358;-74
2023/04/12 02:45:13;;;;;;;;;;;9.10;1.00;;;;;;5075207;28;19908;-74
2023/04/12 02:47:55;;;;;;;;;;;9.10;1.00;;;;;;5075336;28;20003;-79
2023/04/12 02:53:24;;;;;;;;;;;9.10;1.00;;;;;;5084640;28;19938;-79
2023/04/12 02:58:52;;;;;;;;;;;8.90;1.00;;;;;;5075089;28;19911;-79
2023/04/12 03:07:24;;;;;;;;;;;9.00;1.00;;;;;;5074877;28;19954;-79
2023/04/12 03:13:29;;;;;;;;;;;8.90;1.00;;;;;;5074892;28;19915;-79
2023/04/12 03:15:56;;;;;;;;;;;8.90;1.00;;;;;;5080713;28;19915;-79
2023/04/12 03:18:22;;;;;;;;;;;8.90;1.00;;;;;;5059526;28;20283;-74
2023/04/12 03:20:48;;;;;;;;;;;9.00;1.00;;;;;;5074674;28;19908;-74
2023/04/12 03:23:14;;;;;;;;;;;8.90;1.00;;;;;;5074746;28;19948;-74
2023/04/12 03:25:40;;;;;;;;;;;8.90;1.00;;;;;;5058970;28;19912;-74
2023/04/12 03:28:07;;;;;;;;;;;9.00;1.00;;;;;;5074652;28;20264;-74
2023/04/12 03:30:37;;;;;;;;;;;9.00;1.00;;;;;;5074473;28;19950;-74
2023/04/12 03:33:13;;;;;;;;;;;9.00;1.00;;;;;;5074989;28;19908;-79
2023/04/12 03:38:41;;;;;;;;;;;9.00;1.00;;;;;;5074428;28;19911;-81
2023/04/12 03:44:09;;;;;;;;;;;8.90;1.00;;;;;;5074232;28;19967;-80
2023/04/12 03:49:38;;;;;;;;;;;8.90;1.00;;;;;;5084444;28;19951;-85
2023/04/12 04:01:12;;;;;;;;;;;8.80;1.00;;;;;;5074140;28;19961;-85
2023/04/12 04:18:56;;;;;;;;;;;8.80;1.00;;;;;;5094717;28;19919;-84
2023/04/12 04:21:39;;;;;;;;;;;8.80;1.00;;;;;;5094350;28;20271;-85
2023/04/12 04:24:33;;;;;;;;;;;8.80;1.00;;;;;;5094398;28;19939;-84
2023/04/12 04:27:14;;;;;;;;;;;8.80;1.00;;;;;;5076238;28;19958;-84
2023/04/12 04:30:07;;;;;;;;;;;8.80;1.00;;;;;;5094464;28;19908;-85
2023/04/12 04:32:37;;;;;;;;;;;8.70;1.00;;;;;;5094281;28;20312;-85
2023/04/12 04:41:38;;;;;;;;;;;8.70;1.00;;;;;;5094105;28;19911;-86
2023/04/12 04:47:07;;;;;;;;;;;8.80;1.00;;;;;;5094294;28;19997;-86
2023/04/12 04:58:42;;;;;;;;;;;8.90;1.00;;;;;;5094077;28;19911;-86
2023/04/12 05:01:08;;;;;;;;;;;9.00;1.00;;;;;;5094432;28;19908;-86
2023/04/12 05:06:36;;;;;;;;;;;8.90;1.00;;;;;;5093960;28;19954;-85
2023/04/12 05:12:05;;;;;;;;;;;8.90;1.00;;;;;;5094100;28;19915;-85
2023/04/12 05:14:31;;;;;;;;;;;8.90;1.00;;;;;;5093821;28;20306;-85
2023/04/12 05:16:57;;;;;;;;;;;8.90;1.00;;;;;;5079783;28;19919;-84
2023/04/12 05:22:28;;;;;;;;;;;8.80;1.00;;;;;;5097995;28;19943;-90
2023/04/12 05:27:56;;;;;;;;;;;8.70;1.00;;;;;;5097562;28;19919;-91
2023/04/12 05:36:32;;;;;;;;;;;8.80;1.00;;;;;;5076824;28;20646;-87
2023/04/12 05:38:57;;;;;;;;;;;8.70;1.00;;;;;;5074932;28;19908;-87
2023/04/12 05:41:23;;;;;;;;;;;8.80;1.00;;;;;;5076331;28;19912;-87
2023/04/12 05:43:48;;;;;;;;;;;8.80;1.00;;;;;;5058499;28;19912;-87
2023/04/12 05:46:14;;;;;;;;;;;8.90;1.00;;;;;;5058637;28;20334;-87
2023/04/12 05:48:43;;;;;;;;;;;8.80;1.00;;;;;;5058524;28;19943;-87
2023/04/12 05:51:08;;;;;;;;;;;8.90;1.00;;;;;;5058781;28;19921;-93
2023/04/12 05:53:34;;;;;;;;;;;9.00;1.00;;;;;;5061730;28;19917;-93
2023/04/12 05:56:00;;;;;;;;;;;8.80;1.00;;;;;;5076279;28;19927;-93
2023/04/12 05:58:25;;;;;;;;;;;8.80;1.00;;;;;;5066028;28;19926;-93
2023/04/12 06:00:53;;;;;;;;;;;8.80;1.00;;;;;;5058485;28;20232;-94
2023/04/12 06:03:18;;;;;;;;;;;8.80;1.00;;;;;;5058506;28;20326;-93
2023/04/12 06:05:44;;;;;;;;;;;8.80;1.00;;;;;;5058372;28;19905;-89
2023/04/12 06:08:11;;;;;;;;;;;8.90;1.00;;;;;;5058264;28;19904;-89
2023/04/12 06:10:37;;;;;;;;;;;8.80;1.00;;;;;;5058289;28;19905;-89
2023/04/12 06:13:02;;;;;;;;;;;8.70;1.00;;;;;;5076005;28;19912;-73
2023/04/12 06:15:30;;;;;;;;;;;8.90;1.00;;;;;;5075066;28;19912;-72
2023/04/12 06:17:57;;;;;;;;;;;8.90;1.00;;;;;;5074844;28;19908;-72
2023/04/12 06:20:22;;;;;;;;;;;8.90;1.00;;;;;;5075115;28;20435;-72
2023/04/12 06:22:48;;;;;;;;;;;8.90;1.00;;;;;;5080277;28;20015;-72
2023/04/12 06:25:15;;;;;;;;;;;9.00;1.00;;;;;;5090273;28;19908;-72
2023/04/12 06:27:41;;;;;;;;;;;9.00;1.00;;;;;;5082891;28;20393;-72
2023/04/12 06:30:07;;;;;;;;;;;9.10;1.00;;;;;;5075036;28;19908;-72
2023/04/12 06:32:33;;;;;;;;;;;9.10;1.00;;;;;;5071689;28;20360;-72
2023/04/12 06:34:59;;;;;;;;;;;9.10;1.00;;;;;;5074771;28;19954;-72
2023/04/12 06:37:24;;;;;;;;;;;9.00;1.00;;;;;;5079985;28;20310;-72
2023/04/12 06:39:51;;;;;;;;;;;9.10;1.00;;;;;;5095086;28;19904;-72
2023/04/12 06:42:17;;;;;;;;;;;9.10;1.00;;;;;;5093991;28;19904;-73
2023/04/12 06:44:43;;;;;;;;;;;9.00;1.00;;;;;;5094918;28;20308;-72
2023/04/12 06:47:08;;;;;;;;;;;9.10;1.00;;;;;;5094944;28;19998;-73
2023/04/12 06:49:34;;;;;;;;;;;9.20;1.00;;;;;;5094752;28;20271;-72
2023/04/12 06:52:00;;;;;;;;;;;9.10;1.00;;;;;;5094558;28;19922;-72
2023/04/12 06:54:26;;;;;;;;;;;9.10;1.00;;;;;;5090008;28;19904;-72
2023/04/12 06:56:52;;;;;;;;;;;9.20;1.00;;;;;;5089463;28;19907;-72
2023/04/12 06:59:17;;;;;;;;;;;9.30;1.00;;;;;;5076966;28;19966;-72
2023/04/12 07:01:43;;;;;;;;;;;9.20;1.00;;;;;;5074378;28;19911;-73
2023/04/12 07:04:10;;;;;;;;;;;9.30;1.00;;;;;;5074319;28;20379;-72
2023/04/12 07:06:35;;;;;;;;;;;9.30;1.00;;;;;;5056347;28;20278;-72
2023/04/12 07:09:01;;;;;;;;;;;9.40;1.00;;;;;;5074203;28;19995;-72
2023/04/12 07:11:27;;;;;;;;;;;9.50;1.00;;;;;;5057769;28;19908;-72
2023/04/12 07:13:53;;;;;;;;;;;9.50;1.00;;;;;;5069602;28;19941;-72
2023/04/12 07:16:18;;;;;;;;;;;9.60;1.00;;;;;;5076271;28;20335;-72
2023/04/12 07:18:44;;;;;;;;;;;9.60;1.00;;;;;;5094359;28;20419;-72
2023/04/12 07:21:13;;;;;;;;;;;9.60;1.00;;;;;;5094303;28;19910;-72
2023/04/12 07:23:39;;;;;;;;;;;9.60;1.00;;;;;;5094534;28;19912;-72
2023/04/12 07:26:05;;;;;;;;;;;9.50;1.00;;;;;;5094143;28;19952;-73
2023/04/12 07:28:30;;;;;;;;;;;9.50;1.00;;;;;;5094050;28;20359;-72
2023/04/12 07:30:56;;;;;;;;;;;9.60;1.00;;;;;;5094069;28;19908;-73
2023/04/12 07:33:21;;;;;;;;;;;9.50;1.00;;;;;;5094026;28;19966;-72
2023/04/12 07:35:47;;;;;;;;;;;9.60;1.00;;;;;;5094576;28;19911;-91
2023/04/12 07:38:12;;;;;;;;;;;9.60;1.00;;;;;;5083000;28;19911;-91
2023/04/12 07:40:38;;;;;;;;;;;9.60;1.00;;;;;;5074639;28;20267;-92
2023/04/12 07:43:03;;;;;;;;;;;9.70;1.00;;;;;;5074565;28;19935;-92
2023/04/12 07:45:29;;;;;;;;;;;9.60;1.00;;;;;;5074528;28;19905;-92
2023/04/12 07:47:54;;;;;;;;;;;9.70;1.00;;;;;;5074700;28;19904;-91
2023/04/12 07:50:25;;;;;;;;;;;9.70;1.00;;;;;;5056928;28;19904;-91
2023/04/12 07:52:50;;;;;;;;;;;9.80;1.00;;;;;;5057064;28;20278;-91
2023/04/12 07:55:16;;;;;;;;;;;9.70;1.00;;;;;;5074152;28;19904;-92
2023/04/12 07:57:43;;;;;;;;;;;9.70;1.00;;;;;;5086491;28;19904;-92
2023/04/12 08:00:09;;;;;;;;;;;9.80;1.00;;;;;;5076978;28;19915;-92
2023/04/12 08:02:35;;;;;;;;;;;9.90;1.00;;;;;;5076813;28;19904;-91
2023/04/12 08:05:01;;;;;;;;;;;10.00;1.00;;;;;;5076652;28;19904;-91
2023/04/12 08:07:26;;;;;;;;;;;10.00;1.00;;;;;;5094785;28;19970;-84
2023/04/12 08:09:52;;;;;;;;;;;10.20;1.00;;;;;;5075820;28;19949;-84
2023/04/12 08:12:17;;;;;;;;;;;10.30;1.00;;;;;;5093910;28;19908;-84
2023/04/12 08:14:43;;;;;;;;;;;10.40;1.00;;;;;;5075948;28;20305;-84
2023/04/12 08:17:10;;;;;;;;;;;10.40;1.00;;;;;;5069491;28;20386;-84
2023/04/12 08:19:35;;;;;;;;;;;10.20;1.00;;;;;;5073516;28;19912;-83
2023/04/12 08:22:01;;;;;;;;;;;10.20;1.00;;;;;;5055553;28;19905;-83
2023/04/12 08:24:27;;;;;;;;;;;10.40;1.00;;;;;;5056547;28;19911;-92
2023/04/12 08:26:52;;;;;;;;;;;10.30;1.00;;;;;;5056319;28;19904;-91
2023/04/12 08:29:18;;;;;;;;;;;10.40;1.00;;;;;;5056331;28;20253;-91
2023/04/12 08:31:44;;;;;;;;;;;10.60;1.00;;;;;;5056349;28;19956;-91
2023/04/12 08:34:09;;;;;;;;;;;10.60;1.00;;;;;;5074403;28;19911;-91
2023/04/12 08:36:43;;;;;;;;;;;10.50;1.00;;;;;;5074376;28;19911;-92
2023/04/12 08:39:08;;;;;;;;;;;10.50;1.00;;;;;;5074127;28;19909;-84
2023/04/12 08:41:34;;;;;;;;;;;10.50;1.00;;;;;;5055411;28;19958;-84
2023/04/12 08:44:00;;;;;;;;;;;10.60;1.00;;;;;;5055692;28;19949;-84
2023/04/12 08:46:26;;;;;;;;;;;10.60;1.00;;;;;;5073505;28;19908;-84
2023/04/12 08:48:53;;;;;;;;;;;10.60;1.00;;;;;;5055693;28;19904;-84
2023/04/12 08:51:19;;;;;;;;;;;10.70;1.00;;;;;;5076119;28;19912;-84
2023/04/12 08:53:45;;;;;;;;;;;10.80;1.00;;;;;;5077813;28;20378;-93
2023/04/12 08:56:11;;;;;;;;;;;11.00;1.00;;;;;;5077767;28;19904;-92
2023/04/12 08:58:38;;;;;;;;;;;11.00;1.00;;;;;;5059998;28;19989;-91
2023/04/12 09:01:06;;;;;;;;;;;11.80;1.00;;;;;;5059995;28;19904;-92
2023/04/12 09:03:33;;;;;;;;;;;10.90;1.00;;;;;;5055462;28;19904;-83
2023/04/12 09:06:01;;;;;;;;;;;11.00;1.00;;;;;;5054323;28;20415;-73
2023/04/12 09:08:27;;;;;;;;;;;10.80;1.00;;;;;;5054713;28;20003;-72
2023/04/12 09:10:52;;;;;;;;;;;10.80;1.00;;;;;;5054410;28;20369;-82
2023/04/12 09:13:29;;;;;;;;;;;10.90;1.00;;;;;;5054433;28;19919;-83
2023/04/12 09:15:54;;;;;;;;;;;10.80;1.00;;;;;;5054127;28;19909;-82
2023/04/12 09:18:22;;;;;;;;;;;10.80;1.00;;;;;;5041536;28;19924;-82
2023/04/12 09:20:47;;;;;;;;;;;10.90;1.00;;;;;;5037484;28;20296;-82
2023/04/12 09:23:17;;;;;;;;;;;11.70;1.00;;;;;;5054568;28;19928;-86
2023/04/12 09:25:47;;;;;;;;;;;11.20;1.00;;;;;;5054725;28;19996;-86
2023/04/12 09:28:19;;;;;;;;;;;11.40;1.00;;;;;;5054593;28;20280;-86
2023/04/12 09:30:50;;;;;;;;;;;11.60;1.00;;;;;;5037921;28;19940;-86
2023/04/12 09:33:19;;;;;;;;;;;11.50;1.00;;;;;;5055004;28;19904;-87
2023/04/12 09:35:45;;;;;;;;;;;11.50;1.00;;;;;;5058966;28;20366;-87
2023/04/12 09:38:11;;;;;;;;;;;11.50;1.00;;;;;;5058982;28;19957;-83
2023/04/12 09:40:37;;;;;;;;;;;11.40;1.00;;;;;;5076418;28;19904;-83
2023/04/12 09:43:03;;;;;;;;;;;11.20;1.00;;;;;;5058343;28;19966;-83
2023/04/12 09:45:36;;;;;;;;;;;11.20;1.00;;;;;;5075996;28;19908;-83
2023/04/12 09:48:01;;;;;;;;;;;11.40;1.00;;;;;;5075888;28;19904;-83
2023/04/12 09:50:27;;;;;;;;;;;11.50;1.00;;;;;;5058159;28;20417;-82
2023/04/12 09:52:54;;;;;;;;;;;11.60;1.00;;;;;;5075842;28;19909;-82
2023/04/12 09:55:26;;;;;;;;;;;11.70;1.00;;;;;;5076646;28;19916;-86
2023/04/12 09:57:53;;;;;;;;;;;11.80;1.00;;;;;;5076230;28;19905;-86
2023/04/12 10:00:21;;;;;;;;;;;11.90;1.00;;;;;;5058376;28;19955;-86
2023/04/12 10:02:47;;;;;;;;;;;12.10;1.00;;;;;;5074875;28;19904;-86
2023/04/12 10:08:18;;;;;;;;;;;12.20;1.00;;;;;;5076897;28;19954;-85
2023/04/12 10:10:45;;;;;;;;;;;12.00;1.00;;;;;;5090789;28;19904;-83
2023/04/12 10:13:14;;;;;;;;;;;12.30;1.00;;;;;;5096226;28;19904;-82
2023/04/12 10:18:55;;;;;;;;;;;12.50;1.00;;;;;;5095066;28;19915;-82
2023/04/12 10:21:55;;;;;;;;;;;12.70;1.00;;;;;;5098158;28;20343;-82
2023/04/12 10:24:43;;;;;;;;;;;12.60;1.00;;;;;;5087142;28;19911;-84
2023/04/12 10:30:18;;;;;;;;;;;12.40;1.00;;;;;;5082004;28;19923;-82
2023/04/12 10:32:45;;;;;;;;;;;12.20;1.00;;;;;;5074710;28;19915;-82
2023/04/12 10:35:11;;;;;;;;;;;12.50;1.00;;;;;;5056908;28;19911;-83
2023/04/12 10:40:59;;;;;;;;;;;12.40;1.00;;;;;;5075935;28;19914;-85
2023/04/12 10:46:37;;;;;;;;;;;12.10;1.00;;;;;;5096130;28;20330;-85
2023/04/12 10:52:10;;;;;;;;;;;12.20;1.00;;;;;;5074852;28;19926;-85
2023/04/12 11:00:59;;;;;;;;;;;12.30;1.00;;;;;;5075739;28;19954;-85
2023/04/12 11:09:38;;;;;;;;;;;12.50;1.00;;;;;;5094687;28;19953;-85
2023/04/12 11:15:10;;;;;;;;;;;12.50;1.00;;;;;;5074967;28;19946;-85
2023/04/12 11:17:36;;;;;;;;;;;12.70;1.00;;;;;;5075380;28;19908;-85
2023/04/12 11:23:05;;;;;;;;;;;12.90;1.00;;;;;;5074522;28;19927;-85
2023/04/12 11:28:33;;;;;;;;;;;13.00;1.00;;;;;;5074262;28;19951;-82
2023/04/12 11:31:01;;;;;;;;;;;12.80;1.00;;;;;;5090640;28;19963;-82
2023/04/12 11:36:30;;;;;;;;;;;13.40;1.00;;;;;;5074573;28;19958;-82
2023/04/12 11:41:58;;;;;;;;;;;14.10;1.00;;;;;;5084783;28;19916;-85
2023/04/12 11:44:25;;;;;;;;;;;14.30;1.00;;;;;;5074738;28;19905;-86
2023/04/12 11:47:14;;;;;;;;;;;14.40;1.00;;;;;;5074773;28;19909;-85
2023/04/12 11:58:49;;;;;;;;;;;14.90;1.00;;;;;;5094818;28;19950;-86
2023/04/12 12:01:43;;;;;;;;;;;14.90;1.00;;;;;;5094877;28;19926;-86
2023/04/12 12:04:13;;;;;;;;;;;15.10;1.00;;;;;;5076503;28;19908;-86
2023/04/12 12:12:57;;;;;;;;;;;14.20;1.00;;;;;;5086718;28;19961;-86
2023/04/12 12:15:23;;;;;;;;;;;14.50;1.00;;;;;;5074483;28;19908;-86
2023/04/12 12:17:50;;;;;;;;;;;14.60;1.00;;;;;;5074383;28;19935;-86
2023/04/12 12:20:20;;;;;;;;;;;14.20;1.00;;;;;;5073859;28;19953;-85
2023/04/12 12:26:13;;;;;;;;;;;14.40;1.00;;;;;;5096995;28;19949;-83
2023/04/12 12:28:39;;;;;;;;;;;14.50;1.00;;;;;;5080041;28;19912;-82
2023/04/12 12:31:17;;;;;;;;;;;14.80;1.00;;;;;;5080254;28;19908;-83
2023/04/12 12:33:43;;;;;;;;;;;15.00;1.00;;;;;;5080137;28;19904;-83
2023/04/12 12:36:19;;;;;;;;;;;14.80;1.00;;;;;;5080241;28;20382;-82
2023/04/12 12:41:58;;;;;;;;;;;14.70;1.00;;;;;;5098820;28;19910;-85
2023/04/12 12:44:43;;;;;;;;;;;14.90;1.00;;;;;;5080402;28;19911;-85
2023/04/12 12:47:08;;;;;;;;;;;14.40;1.00;;;;;;5080101;28;19908;-72
2023/04/12 12:49:34;;;;;;;;;;;14.50;1.00;;;;;;5087628;28;19904;-72
2023/04/12 12:52:01;;;;;;;;;;;14.50;1.00;;;;;;5077745;28;19979;-73
2023/04/12 12:54:27;;;;;;;;;;;14.40;1.00;;;;;;5077727;28;19947;-73
2023/04/12 12:56:53;;;;;;;;;;;14.30;1.00;;;;;;5078306;28;19940;-71
2023/04/12 12:59:18;;;;;;;;;;;14.20;1.00;;;;;;5077408;28;19967;-71
2023/04/12 13:01:44;;;;;;;;;;;14.20;1.00;;;;;;5077314;28;19904;-71
2023/04/12 13:04:10;;;;;;;;;;;14.10;1.00;;;;;;5077243;28;19908;-71
2023/04/12 13:06:37;;;;;;;;;;;14.10;1.00;;;;;;5077222;28;19904;-71
2023/04/12 13:09:03;;;;;;;;;;;14.10;1.00;;;;;;5076898;28;19954;-70
2023/04/12 13:11:29;;;;;;;;;;;14.00;1.00;;;;;;5091790;28;19916;-71
2023/04/12 13:13:54;;;;;;;;;;;13.90;1.00;;;;;;5085735;28;19912;-71
2023/04/12 13:16:31;;;;;;;;;;;13.60;1.00;;;;;;5089099;28;19916;-78
2023/04/12 13:18:57;;;;;;;;;;;13.60;1.00;;;;;;5082068;28;20368;-80
2023/04/12 13:21:47;;;;;;;;;;;13.50;1.00;;;;;;5059518;28;19911;-85
2023/04/12 13:24:13;;;;;;;;;;;13.40;1.00;;;;;;5085120;28;19909;-85
2023/04/12 13:27:07;;;;;;;;;;;13.30;1.00;;;;;;5076790;28;20321;-85
2023/04/12 13:30:07;;;;;;;;;;;13.40;1.00;;;;;;5061178;28;19998;-85
2023/04/12 13:32:49;;;;;;;;;;;13.30;1.00;;;;;;5077285;28;19915;-85
2023/04/12 13:35:19;;;;;;;;;;;13.10;1.00;;;;;;5059281;28;19904;-85
2023/04/12 13:41:01;;;;;;;;;;;13.20;1.00;;;;;;5076687;28;19916;-83
2023/04/12 13:43:37;;;;;;;;;;;13.40;1.00;;;;;;5076540;28;19904;-83
2023/04/12 13:46:07;;;;;;;;;;;13.60;1.00;;;;;;5059629;28;19995;-83
2023/04/12 13:48:50;;;;;;;;;;;14.00;1.00;;;;;;5059319;28;19908;-84
2023/04/12 13:51:31;;;;;;;;;;;14.10;1.00;;;;;;5086183;28;19959;-83
2023/04/12 13:53:57;;;;;;;;;;;14.20;1.00;;;;;;5073695;28;19904;-83
2023/04/12 13:56:23;;;;;;;;;;;14.50;1.00;;;;;;5088318;28;19915;-84
2023/04/12 13:59:02;;;;;;;;;;;14.50;1.00;;;;;;5080593;28;19962;-84
2023/04/12 14:01:49;;;;;;;;;;;14.70;1.00;;;;;;5076881;28;19905;-85
2023/04/12 14:04:19;;;;;;;;;;;14.90;1.00;;;;;;5058681;28;19905;-81
2023/04/12 14:06:45;;;;;;;;;;;14.60;1.00;;;;;;5077086;28;19983;-80
2023/04/12 14:09:26;;;;;;;;;;;14.70;1.00;;;;;;5058114;28;19936;-81
2023/04/12 14:12:07;;;;;;;;;;;14.70;1.00;;;;;;5076089;28;19912;-88
2023/04/12 14:14:49;;;;;;;;;;;14.70;1.00;;;;;;5075970;28;19904;-81
2023/04/12 14:17:37;;;;;;;;;;;14.50;1.00;;;;;;5075515;28;20041;-83
2023/04/12 14:20:09;;;;;;;;;;;14.50;1.00;;;;;;5075286;28;19909;-80
2023/04/12 14:22:49;;;;;;;;;;;14.70;1.00;;;;;;5063717;28;19957;-81
2023/04/12 14:25:25;;;;;;;;;;;14.60;1.00;;;;;;5081949;28;19904;-82
2023/04/12 14:27:55;;;;;;;;;;;14.40;1.00;;;;;;5096353;28;19907;-80
2023/04/12 14:30:21;;;;;;;;;;;14.30;1.00;;;;;;5095729;28;20363;-81
2023/04/12 14:32:49;;;;;;;;;;;14.00;1.00;;;;;;5095836;28;19915;-81
2023/04/12 14:35:15;;;;;;;;;;;13.80;1.00;;;;;;5091445;28;20071;-79
2023/04/12 14:37:43;;;;;;;;;;;13.80;1.00;;;;;;5057540;28;20381;-75
2023/04/12 14:40:13;;;;;;;;;;;13.70;1.00;;;;;;5093524;28;19916;-76
2023/04/12 14:42:49;;;;;;;;;;;13.40;1.00;;;;;;5096183;28;19912;-75
2023/04/12 14:45:19;;;;;;;;;;;13.40;1.00;;;;;;5073812;28;19963;-75
2023/04/12 14:47:45;;;;;;;;;;;13.20;1.00;;;;;;5070052;28;19905;-75
2023/04/12 14:50:13;;;;;;;;;;;13.10;1.00;;;;;;5057609;28;19923;-76
2023/04/12 14:52:43;;;;;;;;;;;13.20;1.00;;;;;;5075140;28;19931;-76
2023/04/12 14:55:11;;;;;;;;;;;13.10;1.00;;;;;;5075428;28;19912;-75
2023/04/12 14:57:37;;;;;;;;;;;13.20;1.00;;;;;;5075529;28;19931;-76
2023/04/12 15:00:11;;;;;;;;;;;13.30;1.00;;;;;;5075912;28;19942;-77
2023/04/12 15:02:36;;;;;;;;;;;13.40;1.00;;;;;;5074867;28;19904;-77
2023/04/12 15:05:05;;;;;;;;;;;13.50;1.00;;;;;;5074660;28;19911;-76
2023/04/12 15:07:31;;;;;;;;;;;13.60;1.00;;;;;;5074609;28;19911;-76
2023/04/12 15:10:07;;;;;;;;;;;13.60;1.00;;;;;;5074679;28;20283;-77
2023/04/12 15:12:34;;;;;;;;;;;13.60;1.00;;;;;;5074402;28;19908;-76
2023/04/12 15:15:02;;;;;;;;;;;13.90;1.00;;;;;;5074900;28;19916;-76
2023/04/12 15:17:49;;;;;;;;;;;14.40;1.00;;;;;;5082276;28;19912;-76
2023/04/12 15:20:15;;;;;;;;;;;14.40;1.00;;;;;;5088621;28;19904;-77
2023/04/12 15:22:42;;;;;;;;;;;14.70;1.00;;;;;;5086607;28;20272;-76
2023/04/12 15:25:08;;;;;;;;;;;14.90;1.00;;;;;;5072821;28;19911;-75
2023/04/12 15:27:34;;;;;;;;;;;15.00;1.00;;;;;;5078555;28;19953;-76
2023/04/12 15:30:00;;;;;;;;;;;15.20;1.00;;;;;;5073229;28;19916;-76
2023/04/12 15:32:27;;;;;;;;;;;16.00;1.00;;;;;;5073023;28;20355;-76
2023/04/12 15:34:52;;;;;;;;;;;16.40;1.00;;;;;;5073299;28;19954;-76
2023/04/12 15:37:18;;;;;;;;;;;17.20;1.00;;;;;;5054678;28;20398;-76
2023/04/12 15:39:44;;;;;;;;;;;17.40;1.00;;;;;;5077324;28;19908;-76
2023/04/12 15:42:10;;;;;;;;;;;17.20;1.00;;;;;;5076606;28;19917;-76
2023/04/12 15:44:35;;;;;;;;;;;17.30;1.00;;;;;;5094073;28;19995;-77
2023/04/12 15:47:01;;;;;;;;;;;17.10;1.00;;;;;;5085682;28;20411;-77
2023/04/12 15:49:31;;;;;;;;;;;16.50;1.00;;;;;;5074006;28;19919;-76
2023/04/12 15:52:01;;;;;;;;;;;16.10;1.00;;;;;;5074161;28;19919;-76
2023/04/12 15:54:31;;;;;;;;;;;15.70;1.00;;;;;;5074175;28;19905;-77
2023/04/12 15:56:58;;;;;;;;;;;15.40;1.00;;;;;;5075794;28;19991;-77
2023/04/12 15:59:38;;;;;;;;;;;15.30;1.00;;;;;;5094546;28;19911;-76
2023/04/12 16:02:08;;;;;;;;;;;14.90;1.00;;;;;;5075952;28;20278;-77
2023/04/12 16:04:35;;;;;;;;;;;14.80;1.00;;;;;;5094249;28;19904;-77
2023/04/12 16:07:03;;;;;;;;;;;14.80;1.00;;;;;;5094293;28;19904;-77
2023/04/12 16:09:49;;;;;;;;;;;14.60;1.00;;;;;;5094592;28;19910;-76
2023/04/12 16:12:25;;;;;;;;;;;14.80;1.00;;;;;;5090573;28;19909;-76
2023/04/12 16:15:02;;;;;;;;;;;15.50;1.00;;;;;;5074229;28;19904;-76
2023/04/12 16:17:32;;;;;;;;;;;15.50;1.00;;;;;;5089976;28;19977;-76
2023/04/12 16:19:58;;;;;;;;;;;15.40;1.00;;;;;;5090529;28;19904;-76
2023/04/12 16:22:23;;;;;;;;;;;16.10;1.00;;;;;;5083945;28;20358;-76
2023/04/12 16:25:13;;;;;;;;;;;17.10;1.00;;;;;;5094264;28;19908;-76
2023/04/12 16:27:50;;;;;;;;;;;17.90;1.00;;;;;;5077364;28;19919;-76
2023/04/12 16:30:25;;;;;;;;;;;18.90;1.00;;;;;;5074114;28;20528;-76
2023/04/12 16:32:55;;;;;;;;;;;19.10;1.00;;;;;;5088875;28;20436;-76
2023/04/12 16:35:21;;;;;;;;;;;19.30;1.00;;;;;;5091756;28;19908;-77
2023/04/12 16:37:55;;;;;;;;;;;20.00;1.00;;;;;;5078341;28;19915;-75
2023/04/12 16:40:23;;;;;;;;;;;19.70;1.00;;;;;;5082450;28;19914;-74
2023/04/12 16:42:56;;;;;;;;;;;19.90;1.00;;;;;;5080989;28;20007;-83
2023/04/12 16:45:26;;;;;;;;;;;19.40;1.00;;;;;;5094421;28;19908;-81
2023/04/12 16:47:51;;;;;;;;;;;18.90;1.00;;;;;;5084172;28;20286;-82
2023/04/12 16:50:45;;;;;;;;;;;18.70;1.00;;;;;;5097395;28;19904;-82
2023/04/12 16:53:37;;;;;;;;;;;18.90;1.00;;;;;;5084855;28;19912;-83
2023/04/12 16:56:08;;;;;;;;;;;18.70;1.00;;;;;;5093711;28;19953;-82
2023/04/12 16:59:01;;;;;;;;;;;19.10;1.00;;;;;;5069432;28;19955;-83
2023/04/12 17:01:38;;;;;;;;;;;18.90;1.00;;;;;;5075596;28;19969;-82
2023/04/12 17:04:19;;;;;;;;;;;18.40;1.00;;;;;;5081902;28;19904;-83
2023/04/12 17:06:45;;;;;;;;;;;17.90;1.00;;;;;;5072983;28;19908;-82
2023/04/12 17:09:13;;;;;;;;;;;17.40;1.00;;;;;;5092643;28;19915;-81
2023/04/12 17:12:07;;;;;;;;;;;17.40;1.00;;;;;;5090416;28;19916;-81
2023/04/12 17:14:37;;;;;;;;;;;16.70;1.00;;;;;;5092732;28;20359;-82
2023/04/12 17:17:26;;;;;;;;;;;15.80;1.00;;;;;;5094534;28;19947;-82
2023/04/12 17:23:08;;;;;;;;;;;14.80;1.00;;;;;;5087263;28;19915;-82
2023/04/12 17:25:34;;;;;;;;;;;14.30;1.00;;;;;;5059653;28;19909;-83
2023/04/12 17:28:14;;;;;;;;;;;14.00;1.00;;;;;;5075505;28;19912;-82
2023/04/12 17:30:43;;;;;;;;;;;13.70;1.00;;;;;;5095130;28;19922;-82
2023/04/12 17:33:16;;;;;;;;;;;13.40;1.00;;;;;;5078863;28;19915;-82
2023/04/12 17:36:03;;;;;;;;;;;13.30;1.00;;;;;;5083281;28;19908;-81
2023/04/12 17:38:28;;;;;;;;;;;13.10;1.00;;;;;;5068224;28;19908;-81
2023/04/12 17:41:20;;;;;;;;;;;12.90;1.00;;;;;;5076488;28;19911;-82
2023/04/12 17:44:13;;;;;;;;;;;12.70;1.00;;;;;;5058031;28;19904;-82
2023/04/12 17:46:39;;;;;;;;;;;12.60;1.00;;;;;;5058632;28;19904;-80
2023/04/12 17:49:13;;;;;;;;;;;12.50;1.00;;;;;;5058825;28;19915;-80
2023/04/12 17:51:43;;;;;;;;;;;12.40;1.00;;;;;;5076231;28;19909;-76
2023/04/12 17:54:09;;;;;;;;;;;12.30;1.00;;;;;;5074295;28;19908;-77
2023/04/12 17:56:49;;;;;;;;;;;12.30;1.00;;;;;;5076426;28;19911;-78
2023/04/12 18:02:18;;;;;;;;;;;12.30;1.00;;;;;;5094238;28;19911;-80
2023/04/12 18:04:49;;;;;;;;;;;12.30;1.00;;;;;;5076328;28;20306;-79